createdAt,value
2022-09-12T00:01:53.076Z,7.40
2022-09-12T00:05:20.624Z,6.90
2022-09-12T00:08:47.641Z,7.00
2022-09-12T00:12:14.440Z,7.40
2022-09-12T00:15:44.076Z,7.50
2022-09-12T00:19:12.542Z,7.80
2022-09-12T00:22:39.364Z,7.40
2022-09-12T00:26:07.831Z,6.90
2022-09-12T00:29:34.962Z,7.20
2022-09-12T00:33:02.308Z,7.30
2022-09-12T00:36:31.307Z,7.50
2022-09-12T00:39:57.983Z,7.00
2022-09-12T00:43:40.259Z,7.00
2022-09-12T00:47:14.232Z,7.60
2022-09-12T00:50:41.076Z,7.60
2022-09-12T00:54:13.614Z,7.30
2022-09-12T00:57:45.594Z,7.50
2022-09-12T01:01:12.348Z,8.40
2022-09-12T01:04:42.116Z,7.60
2022-09-12T01:11:38.279Z,7.10
2022-09-12T01:15:06.359Z,6.70
2022-09-12T01:18:46.251Z,7.00
2022-09-12T01:22:34.541Z,6.10
2022-09-12T01:26:22.647Z,6.50
2022-09-12T01:30:07.356Z,6.70
2022-09-12T01:33:57.449Z,7.60
2022-09-12T01:37:34.247Z,6.90
2022-09-12T01:41:13.059Z,7.40
2022-09-12T01:44:47.474Z,7.60
2022-09-12T01:48:22.034Z,7.90
2022-09-12T01:51:58.387Z,8.20
2022-09-12T01:55:29.627Z,7.50
2022-09-12T01:59:02.423Z,8.00
2022-09-12T02:02:34.706Z,7.60
2022-09-12T02:06:08.006Z,8.40
2022-09-12T02:09:40.806Z,8.40
2022-09-12T02:13:13.632Z,8.30
2022-09-12T02:16:46.346Z,8.30
2022-09-12T02:20:43.960Z,7.80
2022-09-12T02:24:11.420Z,8.60
2022-09-12T02:27:43.130Z,9.10
2022-09-12T02:31:19.546Z,7.70
2022-09-12T02:34:51.159Z,8.10
2022-09-12T02:38:25.660Z,7.50
2022-09-12T02:41:55.774Z,7.80
2022-09-12T02:45:23.940Z,8.00
2022-09-12T02:48:50.631Z,8.30
2022-09-12T02:52:18.048Z,8.50
2022-09-12T02:55:46.488Z,8.50
2022-09-12T02:59:17.469Z,8.40
2022-09-12T03:03:07.885Z,9.30
2022-09-12T03:06:41.133Z,9.50
2022-09-12T03:10:14.649Z,9.10
2022-09-12T03:13:54.275Z,9.30
2022-09-12T03:17:31.317Z,9.40
2022-09-12T03:21:03.923Z,9.50
2022-09-12T03:24:34.238Z,9.70
2022-09-12T03:28:08.165Z,9.40
2022-09-12T03:31:35.674Z,10.10
2022-09-12T03:35:02.886Z,11.10
2022-09-12T03:38:30.135Z,10.60
2022-09-12T03:41:57.373Z,10.20
2022-09-12T03:45:24.322Z,9.70
2022-09-12T03:48:51.380Z,10.50
2022-09-12T03:52:18.610Z,9.80
2022-09-12T03:55:45.418Z,10.20
2022-09-12T03:59:12.681Z,10.90
2022-09-12T04:02:39.720Z,10.70
2022-09-12T04:06:55.592Z,11.00
2022-09-12T04:10:22.855Z,11.60
2022-09-12T04:13:51.546Z,10.60
2022-09-12T04:17:19.002Z,11.30
2022-09-12T04:20:48.218Z,11.40
2022-09-12T04:24:15.549Z,10.40
2022-09-12T04:27:42.614Z,10.50
2022-09-12T04:31:13.582Z,9.70
2022-09-12T04:34:40.626Z,10.00
2022-09-12T04:38:10.308Z,10.40
2022-09-12T04:41:39.268Z,11.00
2022-09-12T04:45:07.712Z,10.90
2022-09-12T04:48:34.760Z,9.80
2022-09-12T04:52:02.202Z,10.40
2022-09-12T04:55:28.896Z,10.90
2022-09-12T04:58:57.560Z,9.80
2022-09-12T05:02:24.718Z,10.40
2022-09-12T05:05:56.248Z,11.10
2022-09-12T05:09:27.945Z,10.70
2022-09-12T05:12:55.344Z,10.70
2022-09-12T05:16:23.596Z,11.20
2022-09-12T05:19:51.071Z,10.60
2022-09-12T05:23:17.820Z,10.90
2022-09-12T05:26:44.687Z,10.90
2022-09-12T05:30:14.719Z,10.30
2022-09-12T05:37:07.979Z,11.50
2022-09-12T05:40:38.080Z,10.80
2022-09-12T05:44:06.907Z,11.50
2022-09-12T05:47:34.799Z,11.40
2022-09-12T05:51:06.881Z,11.30
2022-09-12T05:54:34.519Z,11.20
2022-09-12T05:58:01.991Z,10.60
2022-09-12T06:01:30.609Z,10.50
2022-09-12T06:04:57.961Z,10.30
2022-09-12T06:08:25.394Z,9.60
2022-09-12T06:11:56.034Z,10.50
2022-09-12T06:15:22.984Z,9.80
2022-09-12T06:18:52.147Z,9.80
2022-09-12T06:22:20.001Z,9.90
2022-09-12T06:25:53.077Z,9.50
2022-09-12T06:29:20.619Z,10.00
2022-09-12T06:32:48.002Z,10.00
2022-09-12T06:36:18.572Z,8.90
2022-09-12T06:39:46.968Z,8.80
2022-09-12T06:43:14.812Z,8.50
2022-09-12T06:46:41.885Z,8.60
2022-09-12T06:50:10.545Z,8.90
2022-09-12T06:53:38.428Z,8.80
2022-09-12T06:57:05.446Z,7.90
2022-09-12T07:00:32.404Z,7.80
2022-09-12T07:04:01.419Z,7.20
2022-09-12T07:07:28.461Z,7.50
2022-09-12T07:10:55.514Z,7.20
2022-09-12T07:14:22.245Z,7.70
2022-09-12T07:17:49.012Z,7.80
2022-09-12T07:21:16.318Z,7.20
2022-09-12T07:24:43.324Z,6.90
2022-09-12T07:28:10.099Z,7.30
2022-09-12T07:31:36.878Z,7.30
2022-09-12T07:35:04.778Z,6.90
2022-09-12T07:38:31.683Z,7.00
2022-09-12T07:41:58.821Z,6.40
2022-09-12T07:45:27.883Z,6.30
2022-09-12T07:48:56.302Z,5.60
2022-09-12T07:52:24.630Z,5.90
2022-09-12T07:55:57.603Z,4.80
2022-09-12T07:59:48.459Z,4.90
2022-09-12T08:03:13.152Z,4.60
2022-09-12T08:06:40.671Z,4.70
2022-09-12T08:10:09.542Z,4.80
2022-09-12T08:13:37.766Z,4.30
2022-09-12T08:17:05.610Z,3.90
2022-09-12T08:20:33.137Z,4.20
2022-09-12T08:24:02.503Z,4.00
2022-09-12T08:27:30.066Z,4.60
2022-09-12T08:31:00.984Z,4.20
2022-09-12T08:34:28.029Z,4.10
2022-09-12T08:37:58.365Z,4.20
2022-09-12T08:41:30.914Z,4.40
2022-09-12T08:45:09.813Z,3.90
2022-09-12T08:48:38.266Z,4.60
2022-09-12T08:52:08.994Z,3.70
2022-09-12T08:55:39.654Z,3.40
2022-09-12T08:59:07.069Z,4.30
2022-09-12T09:02:58.941Z,3.10
2022-09-12T09:06:39.097Z,3.90
2022-09-12T09:10:16.150Z,3.70
2022-09-12T09:14:14.738Z,3.30
2022-09-12T09:17:46.587Z,3.40
2022-09-12T09:21:26.895Z,3.40
2022-09-12T09:25:00.890Z,3.30
2022-09-12T09:28:33.103Z,3.80
2022-09-12T09:32:05.461Z,3.50
2022-09-12T09:35:45.512Z,3.10
2022-09-12T09:39:23.108Z,3.00
2022-09-12T09:43:04.369Z,3.30
2022-09-12T09:46:31.693Z,3.30
2022-09-12T09:49:59.051Z,3.00
2022-09-12T09:53:41.443Z,2.80
2022-09-12T09:57:41.231Z,2.90
2022-09-12T10:04:41.106Z,2.30
2022-09-12T10:08:10.820Z,2.60
2022-09-12T10:11:43.678Z,3.00
2022-09-12T10:15:22.908Z,2.90
2022-09-12T10:18:51.081Z,2.60
2022-09-12T10:22:21.862Z,2.50
2022-09-12T10:25:55.028Z,2.60
2022-09-12T10:29:25.487Z,2.60
2022-09-12T10:32:54.162Z,2.70
2022-09-12T10:36:24.167Z,2.30
2022-09-12T10:39:57.166Z,2.70
2022-09-12T10:43:31.023Z,2.90
2022-09-12T10:46:59.062Z,3.10
2022-09-12T10:50:29.033Z,2.80
2022-09-12T10:54:00.142Z,2.30
2022-09-12T10:58:09.753Z,2.30
2022-09-12T11:01:44.423Z,1.80
2022-09-12T11:05:22.565Z,2.40
2022-09-12T11:09:14.291Z,2.00
2022-09-12T11:12:48.216Z,2.20
2022-09-12T11:16:24.783Z,2.30
2022-09-12T11:20:08.141Z,2.00
2022-09-12T11:24:00.700Z,2.00
2022-09-12T11:27:42.658Z,1.80
2022-09-12T11:31:32.306Z,1.90
2022-09-12T11:35:11.874Z,2.10
2022-09-12T11:42:40.578Z,2.00
2022-09-12T11:46:15.339Z,1.70
2022-09-12T11:49:50.545Z,2.00
2022-09-12T11:53:24.216Z,1.80
2022-09-12T11:56:57.148Z,1.70
2022-09-12T12:00:30.362Z,2.00
2022-09-12T12:03:57.999Z,1.70
2022-09-12T12:07:24.898Z,1.90
2022-09-12T12:10:57.159Z,2.00
2022-09-12T12:14:32.020Z,1.80
2022-09-12T12:18:07.445Z,1.70
2022-09-12T12:21:43.679Z,1.40
2022-09-12T12:25:29.847Z,1.50
2022-09-12T12:29:01.290Z,1.40
2022-09-12T12:32:29.231Z,1.50
2022-09-12T12:36:09.978Z,1.40
2022-09-12T12:40:01.329Z,1.60
2022-09-12T12:43:34.762Z,1.70
2022-09-12T12:47:19.725Z,2.10
2022-09-12T12:50:48.509Z,1.60
2022-09-12T12:54:34.883Z,9.60
2022-09-12T12:58:03.739Z,2.80
2022-09-12T13:01:41.199Z,2.20
2022-09-12T13:05:18.759Z,1.70
2022-09-12T13:09:03.233Z,1.10
2022-09-12T13:12:34.034Z,1.70
2022-09-12T13:16:01.093Z,1.50
2022-09-12T13:19:32.370Z,1.50
2022-09-12T13:23:00.517Z,1.20
2022-09-12T13:26:28.065Z,1.40
2022-09-12T13:30:09.757Z,1.20
2022-09-12T13:33:46.256Z,1.50
2022-09-12T13:37:31.212Z,1.80
2022-09-12T13:41:20.003Z,1.50
2022-09-12T13:44:52.807Z,1.70
2022-09-12T13:48:26.379Z,1.90
2022-09-12T13:52:02.853Z,2.00
2022-09-12T13:55:34.022Z,2.20
2022-09-12T13:59:12.565Z,2.20
2022-09-12T14:02:41.500Z,2.10
2022-09-12T14:06:19.137Z,2.00
2022-09-12T14:09:48.132Z,2.20
2022-09-12T14:13:19.417Z,2.00
2022-09-12T14:16:46.056Z,2.40
2022-09-12T14:20:18.575Z,2.50
2022-09-12T14:23:49.611Z,2.70
2022-09-12T14:27:18.814Z,2.40
2022-09-12T14:31:02.128Z,2.70
2022-09-12T14:34:32.463Z,2.70
2022-09-12T14:38:19.954Z,2.40
2022-09-12T14:41:47.751Z,2.30
2022-09-12T14:45:19.573Z,1.90
2022-09-12T14:48:51.795Z,2.30
2022-09-12T14:52:32.376Z,2.10
2022-09-12T14:56:10.055Z,2.00
2022-09-12T14:59:41.906Z,1.70
2022-09-12T15:03:26.780Z,1.90
2022-09-12T15:06:53.933Z,2.10
2022-09-12T15:10:25.509Z,2.10
2022-09-12T15:13:55.385Z,2.00
2022-09-12T15:17:22.625Z,2.20
2022-09-12T15:20:56.036Z,1.80
2022-09-12T15:24:23.105Z,2.20
2022-09-12T15:27:56.118Z,2.70
2022-09-12T15:31:27.053Z,3.00
2022-09-12T15:34:57.351Z,2.90
2022-09-12T15:38:26.480Z,2.80
2022-09-12T15:42:14.720Z,2.50
2022-09-12T15:45:44.846Z,3.00
2022-09-12T15:49:11.912Z,2.90
2022-09-12T15:52:47.925Z,2.80
2022-09-12T15:56:15.059Z,3.30
2022-09-12T15:59:41.903Z,3.20
2022-09-12T16:03:19.259Z,3.50
2022-09-12T16:06:49.135Z,3.20
2022-09-12T16:14:06.101Z,3.50
2022-09-12T16:17:32.866Z,3.30
2022-09-12T16:21:00.178Z,3.70
2022-09-12T16:24:27.388Z,3.50
2022-09-12T16:27:56.581Z,3.90
2022-09-12T16:31:23.499Z,3.70
2022-09-12T16:35:12.033Z,3.70
2022-09-12T16:38:43.308Z,3.30
2022-09-12T16:42:10.438Z,3.80
2022-09-12T16:46:05.603Z,3.80
2022-09-12T16:49:52.970Z,4.40
2022-09-12T16:53:19.837Z,4.00
2022-09-12T17:00:17.443Z,4.20
2022-09-12T17:03:45.065Z,4.40
2022-09-12T17:07:14.929Z,4.40
2022-09-12T17:11:00.145Z,4.90
2022-09-12T17:14:36.177Z,4.20
2022-09-12T17:18:03.023Z,4.50
2022-09-12T17:21:30.214Z,4.70
2022-09-12T17:25:00.025Z,4.70
2022-09-12T17:28:27.662Z,4.80
2022-09-12T17:31:56.661Z,4.80
2022-09-12T17:35:23.889Z,5.70
2022-09-12T17:38:52.721Z,5.30
2022-09-12T17:42:22.223Z,5.40
2022-09-12T17:45:57.052Z,5.90
2022-09-12T17:49:24.841Z,5.80
2022-09-12T17:59:52.810Z,6.10
2022-09-12T18:03:24.841Z,7.10
2022-09-12T18:06:52.395Z,7.00
2022-09-12T18:10:19.860Z,6.60
2022-09-12T18:13:47.657Z,7.10
2022-09-12T18:17:15.141Z,7.00
2022-09-12T18:20:51.212Z,7.10
2022-09-12T18:24:18.929Z,7.90
2022-09-12T18:27:46.441Z,8.00
2022-09-12T18:31:17.203Z,8.00
2022-09-12T18:34:44.381Z,10.80
2022-09-12T18:38:14.871Z,12.40
2022-09-12T18:41:42.496Z,12.20
2022-09-12T18:45:11.926Z,12.30
2022-09-12T18:48:39.502Z,14.00
2022-09-12T18:52:07.224Z,14.40
2022-09-12T18:55:34.909Z,14.70
2022-09-12T18:59:05.956Z,15.20
2022-09-12T19:02:36.955Z,15.00
2022-09-12T19:06:07.588Z,15.90
2022-09-12T19:09:38.295Z,17.00
2022-09-12T19:13:05.555Z,16.10
2022-09-12T19:16:33.108Z,18.30
2022-09-12T19:20:09.062Z,19.30
2022-09-12T19:23:37.647Z,18.40
2022-09-12T19:27:06.621Z,18.40
2022-09-12T19:30:34.081Z,18.60
2022-09-12T19:34:05.421Z,19.50
2022-09-12T19:37:34.175Z,19.20
2022-09-12T19:41:02.893Z,21.00
2022-09-12T19:44:34.573Z,18.80
2022-09-12T19:48:01.786Z,18.70
2022-09-12T19:51:31.664Z,19.70
2022-09-12T19:54:58.634Z,18.80
2022-09-12T19:58:26.023Z,17.40
2022-09-12T20:01:55.713Z,15.70
2022-09-12T20:05:22.997Z,14.90
2022-09-12T20:08:50.309Z,13.20
2022-09-12T20:12:17.446Z,14.00
2022-09-12T20:15:44.344Z,13.50
2022-09-12T20:19:11.325Z,12.60
2022-09-12T20:22:40.132Z,12.60
2022-09-12T20:26:08.824Z,12.70
2022-09-12T20:29:35.961Z,12.20
2022-09-12T20:33:03.342Z,11.60
2022-09-12T20:36:30.661Z,10.60
2022-09-12T20:39:58.833Z,11.20
2022-09-12T20:43:25.713Z,11.80
2022-09-12T20:46:56.172Z,10.70
2022-09-12T20:50:23.046Z,11.30
2022-09-12T20:53:55.882Z,11.60
2022-09-12T20:57:25.502Z,12.80
2022-09-12T21:00:52.555Z,12.40
2022-09-12T21:04:19.501Z,12.60
2022-09-12T21:07:46.411Z,11.40
2022-09-12T21:11:17.622Z,11.70
2022-09-12T21:14:44.359Z,11.60
2022-09-12T21:21:39.408Z,11.90
2022-09-12T21:25:07.064Z,11.50
2022-09-12T21:28:34.922Z,12.20
2022-09-12T21:32:05.985Z,12.50
2022-09-12T21:35:34.974Z,13.50
2022-09-12T21:39:22.480Z,13.30
2022-09-12T21:42:50.780Z,13.10
2022-09-12T21:46:20.494Z,13.40
2022-09-12T21:49:50.536Z,14.30
2022-09-12T21:53:17.573Z,13.40
2022-09-12T21:57:00.750Z,15.00
2022-09-12T22:00:28.891Z,14.60
2022-09-12T22:04:13.157Z,16.30
2022-09-12T22:07:40.724Z,16.40
2022-09-12T22:11:09.841Z,16.40
2022-09-12T22:14:39.975Z,17.20
2022-09-12T22:18:15.630Z,17.60
2022-09-12T22:22:02.308Z,19.50
2022-09-12T22:25:32.314Z,17.90
2022-09-12T22:29:00.224Z,19.10
2022-09-12T22:32:27.144Z,19.70
2022-09-12T22:35:54.023Z,18.40
2022-09-12T22:39:21.538Z,18.20
2022-09-12T22:42:48.327Z,18.00
2022-09-12T22:46:15.156Z,18.00
2022-09-12T22:49:42.864Z,17.00
2022-09-12T22:53:09.956Z,18.70
2022-09-12T22:56:46.988Z,18.80
2022-09-12T23:00:18.117Z,21.30
2022-09-12T23:03:45.044Z,21.20
2022-09-12T23:07:15.137Z,21.40
2022-09-12T23:10:42.415Z,20.50
2022-09-12T23:14:09.349Z,23.30
2022-09-12T23:17:47.956Z,22.70
2022-09-12T23:21:20.129Z,22.20
2022-09-12T23:24:47.726Z,23.70
2022-09-12T23:28:17.726Z,22.50
2022-09-12T23:31:45.024Z,22.70
2022-09-12T23:35:13.162Z,22.90
2022-09-12T23:38:40.161Z,21.50
2022-09-12T23:42:09.949Z,22.90
2022-09-12T23:45:37.265Z,22.30
2022-09-12T23:49:07.436Z,23.60
2022-09-12T23:52:37.288Z,22.50
2022-09-12T23:56:09.591Z,23.40
2022-09-12T23:59:45.474Z,24.10
